Metar Cercanos

 

LEPA - Palma De Mallorc, Spain
Distance from station: ONO 38km
Actualización: Thu, 30-Jun-2022 2:30am CEST
Despejado
Despejado
 Viento del N
Viento: N 6 km/h
Temperatura: 20°C
Rocío: 18°C
Humedad: 88%
Barómetro: 1012 hPa
Resumen: Despejado
Visibility: greater than 10 km
2022/06/30 00:30 LEPA 300030Z 01003KT 340V040 CAVOK 20/18 Q1012 NOSIG
LEMH - Mahon/Menorca Is, Spain
Distance from station: ENE 105km
Actualización: Thu, 30-Jun-2022 2:30am CEST
Despejado
Despejado
 Viento del varies
Viento: varies 2 km/h
Temperatura: 21°C
Rocío: 19°C
Humedad: 88%
Barómetro: 1012 hPa
Resumen: Despejado
Visibility: greater than 10 km
2022/06/30 00:30 LEMH 300030Z AUTO VRB01KT CAVOK 21/19 Q1012
 
LEIB - Ibiza/Es Codola, Spain
Distance from station: OSO 165km
Actualización: Thu, 30-Jun-2022 2:30am CEST
Despejado
Despejado
 Viento del SO
Viento: SO 11 km/h
Temperatura: 23°C
Rocío: 20°C
Humedad: 83%
Barómetro: 1012 hPa
Resumen: Despejado
Visibility: greater than 10 km
2022/06/30 00:30 LEIB 300030Z 23006KT CAVOK 23/20 Q1012 NOSIG
LEBL - Barcelona Airpor, Spain
Distance from station: NNO 225km
Actualización: Thu, 30-Jun-2022 2:30am CEST
Few Clouds
Few Clouds
 Viento del NO
Viento: NO 9 km/h
Temperatura: 22°C
Rocío: 18°C
Humedad: 78%
Barómetro: 1012 hPa
Clouds: Few Clouds
Visibility: 10 km
Cloud details: Few Clouds 579 m
2022/06/30 00:30 LEBL 300030Z 32005KT 9999 FEW019 22/18 Q1012 NOSIG
 
LEVC - Valencia (civ/Mi, Spain
Distance from station: NO 188km
Actualización: Thu, 30-Jun-2022 2:30am CEST
Despejado
Despejado
 Viento del N
Viento: N 7 km/h
Temperatura: 23°C
Rocío: 18°C
Humedad: 74%
Barómetro: 1011 hPa
Resumen: Despejado
Visibility: greater than 10 km
2022/06/30 00:30 LEVC 300030Z 01004KT 340V040 CAVOK 23/18 Q1011 NOSIG
LEGE - Gerona/Costa Bra, Spain
Distance from station: N 276km
Actualización: Thu, 30-Jun-2022 2:30am CEST
Parcialmente nuboso
Parcialmente nuboso
 Viento del varies
Viento: varies 2 km/h
Temperatura: 16°C
Rocío: 15°C
Humedad: 94%
Barómetro: 1012 hPa
Clouds: Parcialmente nuboso
Visibility: 10 km
Cloud details: Few Clouds 1219 m
Parcialmente nuboso 2134 m
2022/06/30 00:30 LEGE 300030Z VRB01KT 9999 FEW040TCU SCT070 16/15 Q1012
 
LEAL - Alicante/El Alte, Spain
Distance from station: OSO 344km
Actualización: Thu, 30-Jun-2022 2:30am CEST
Despejado
Despejado
 Viento del ONO
Viento: ONO 6 km/h
Temperatura: 22°C
Rocío: 20°C
Humedad: 88%
Barómetro: 1012 hPa
Resumen: Despejado
Visibility: greater than 10 km
2022/06/30 00:30 LEAL 300030Z 29003KT CAVOK 22/20 Q1012 NOSIG
LEAM - Almeria Airport, Spain
Distance from station: SSO 56km
Actualización: Thu, 30-Jun-2022 2:30am CEST
Despejado
Despejado
 Viento del SSO
Viento: SSO 6 km/h
Temperatura: 19°C
Rocío: 18°C
Humedad: 94%
Barómetro: 1012 hPa
Resumen: Despejado
Visibility: greater than 10 km
2022/06/30 00:30 LEAM 300030Z AUTO 20003KT 170V250 CAVOK 19/18 Q1012
 
LEZG - Zaragoza (mil/Ci, Spain
Distance from station: NO 431km
Actualización: Thu, 30-Jun-2022 2:30am CEST
Despejado
Despejado
 Viento del ONO
Viento: ONO 24 km/h
Temperatura: 18°C
Rocío: 12°C
Humedad: 68%
Barómetro: 1013 hPa
Resumen: Despejado
Visibility: greater than 10 km
2022/06/30 00:30 LEZG 300030Z 30013KT CAVOK 18/12 Q1013
LEMD - Madrid/Barajas, Spain
Distance from station: ONO 234km
Actualización: Thu, 30-Jun-2022 2:30am CEST
Despejado
Despejado
 Viento del varies
Viento: varies 2 km/h
Temperatura: 22°C
Rocío: 7°C
Humedad: 38%
Barómetro: 1012 hPa
Resumen: Despejado
Visibility: greater than 10 km
2022/06/30 00:30 LEMD 300030Z VRB01KT CAVOK 22/07 Q1012 NOSIG
 
LEGR - Granada Airport, Spain
Distance from station: OSO 62km
Actualización: Thu, 30-Jun-2022 2:30am CEST
Despejado
Despejado
 Viento del OSO
Viento: OSO 13 km/h
Temperatura: 23°C
Rocío: 6°C
Humedad: 33%
Barómetro: 1014 hPa
Resumen: Despejado
Visibility: greater than 10 km
2022/06/30 00:30 LEGR 300030Z AUTO 25007KT CAVOK 23/06 Q1014
LEMG - Malaga (civ/Mil), Spain
Distance from station: OSO 227km
Actualización: Thu, 30-Jun-2022 2:30am CEST
Despejado
Despejado
 Viento del ONO
Viento: ONO 7 km/h
Temperatura: 19°C
Rocío: 17°C
Humedad: 88%
Barómetro: 1012 hPa
Resumen: Despejado
Visibility: greater than 10 km
2022/06/30 00:30 LEMG 300030Z 30004KT CAVOK 19/17 Q1012 NOSIG
 
LEZL - Sevilla (civ/Mil, Spain
Distance from station: S 318km
Actualización: Thu, 30-Jun-2022 2:30am CEST
Despejado
Despejado
 Viento del S
Viento: S 6 km/h
Temperatura: 21°C
Rocío: 13°C
Humedad: 60%
Barómetro: 1012 hPa
Resumen: Despejado
Visibility: greater than 10 km
2022/06/30 00:30 LEZL 300030Z 17003KT 140V290 CAVOK 21/13 Q1012 NOSIG
LEVT - Vitoria, Spain
Distance from station: NO 226km
Actualización: Thu, 30-Jun-2022 2:30am CEST
Cubierto
Cubierto
 Viento del NNO
Viento: NNO 6 km/h
Temperatura: 12°C
Rocío: 9°C
Humedad: 82%
Barómetro: 1017 hPa
Clouds: Cubierto
Visibility: 10 km
Cloud details: Cubierto 488 m
2022/06/30 00:30 LEVT 300030Z 34003KT 270V020 9999 OVC016 12/09 Q1017
 
LEBB - Bilbao/Sondica, Spain
Distance from station: NNO 235km
Actualización: Thu, 30-Jun-2022 12:00am CEST
NOT Current
Cubierto
Cubierto
 Viento del O
Viento: O 4 km/h
Temperatura: 16°C
Rocío: 14°C
Humedad: 88%
Barómetro: 1018 hPa
Clouds: Cubierto
Visibility: 10 km
Cloud details: Few Clouds 610 m
Cubierto 1280 m
2022/06/29 22:00 LEBB 292200Z 28002KT 9999 FEW020 OVC042 16/14 Q1018 TEMPO 3000 DZ BKN010
LESO - San Sebastian/Fu, Spain
Distance from station: N 231km
Actualización: Thu, 30-Jun-2022 2:30am CEST
Cubierto
Cubierto
 Viento del OSO
Viento: OSO 7 km/h
Temperatura: 16°C
Rocío: 16°C
Humedad: 100%
Barómetro: 1016 hPa
Clouds: Cubierto
Visibility: 10 km
Cloud details: Few Clouds 823 m
Muy nuboso 1097 m
Cubierto 1311 m
2022/06/30 00:30 LESO 300030Z AUTO 24004KT 200V270 9999 FEW027 BKN036 OVC043 16/16 Q1016
 
LEVD - Valladolid(Mil/C, Spain
Distance from station: ONO 239km
Actualización: Thu, 30-Jun-2022 2:30am CEST
Despejado
Despejado
 Viento del NNE
Viento: NNE 11 km/h
Temperatura: 11°C
Rocío: 7°C
Humedad: 77%
Barómetro: 1016 hPa
Resumen: Despejado
Visibility: greater than 10 km
2022/06/30 00:30 LEVD 300030Z AUTO 02006KT CAVOK 11/07 Q1016
LESA - Salamanca (civ/M, Spain
Distance from station: ONO 349km
Actualización: Thu, 30-Jun-2022 2:30am CEST
Despejado
Despejado
 Viento del NO
Viento: NO 9 km/h
Temperatura: 12°C
Rocío: 7°C
Humedad: 72%
Barómetro: 1016 hPa
Clouds: Despejado
Visibility: 8 km
2022/06/30 00:30 LESA 300030Z AUTO 31005KT 8000 NCD 12/07 Q1016
 
LEXJ - Santander/Paraya, Spain
Distance from station: NNO 247km
Actualización: Thu, 30-Jun-2022 2:30am CEST
Cubierto
Cubierto
 Viento del SO
Viento: SO 11 km/h
Temperatura: 14°C
Rocío: 12°C
Humedad: 88%
Barómetro: 1017 hPa
Clouds: Cubierto
Visibility: 10 km
Cloud details: Few Clouds 975 m
Muy nuboso 1311 m
Cubierto 2012 m
2022/06/30 00:30 LEXJ 300030Z AUTO 23006KT 190V260 9999 FEW032 BKN043 OVC066 14/12 Q1017
LEAS - Asturias/Aviles, Spain
Distance from station: NO 214km
Actualización: Thu, 30-Jun-2022 2:30am CEST
Cubierto
Cubierto
 Viento del OSO
Viento: OSO 11 km/h
Temperatura: 14°C
Rocío: 11°C
Humedad: 82%
Barómetro: 1018 hPa
Clouds: Cubierto
Visibility: 10 km
Cloud details: Few Clouds 1524 m
Cubierto 2073 m
2022/06/30 00:30 LEAS 300030Z AUTO 24006KT 210V280 9999 FEW050 OVC068 14/11 Q1018
 
LECO - La Coruna/Alvedr, Spain
Distance from station: ONO 222km
Actualización: Thu, 30-Jun-2022 2:30am CEST
Despejado
Despejado
 Viento del ONO
Viento: ONO 4 km/h
Temperatura: 14°C
Rocío: 10°C
Humedad: 77%
Barómetro: 1019 hPa
Resumen: Despejado
Visibility: greater than 10 km
2022/06/30 00:30 LECO 300030Z AUTO 30002KT CAVOK 14/10 Q1019
LEVX - Vigo/Peinador, Spain
Distance from station: O 214km
Actualización: Thu, 30-Jun-2022 2:30am CEST
Despejado
Despejado
 Viento del N
Viento: N 6 km/h
Temperatura: 12°C
Rocío: 9°C
Humedad: 82%
Barómetro: 1019 hPa
Resumen: Despejado
Visibility: greater than 10 km
2022/06/30 00:30 LEVX 300030Z 01003KT 330V050 CAVOK 12/09 Q1019 NOSIG